sensor_id;sensor_type;location;lat;lon;timestamp;temperature;humidity
67572;SHT31;54397;47.506;19.158;2023-05-07T00:01:15;17.46;79.18
67572;SHT31;54397;47.506;19.158;2023-05-07T00:04:38;17.38;79.60
67572;SHT31;54397;47.506;19.158;2023-05-07T00:08:00;17.31;79.91
67572;SHT31;54397;47.506;19.158;2023-05-07T00:11:24;17.40;79.31
67572;SHT31;54397;47.506;19.158;2023-05-07T00:14:47;17.42;79.18
67572;SHT31;54397;47.506;19.158;2023-05-07T00:18:09;17.38;79.24
67572;SHT31;54397;47.506;19.158;2023-05-07T00:21:33;16.98;80.37
67572;SHT31;54397;47.506;19.158;2023-05-07T00:24:57;16.94;80.70
67572;SHT31;54397;47.506;19.158;2023-05-07T00:28:21;16.76;81.09
67572;SHT31;54397;47.506;19.158;2023-05-07T00:31:42;16.67;81.25
67572;SHT31;54397;47.506;19.158;2023-05-07T00:35:05;16.64;81.29
67572;SHT31;54397;47.506;19.158;2023-05-07T00:38:29;16.77;80.86
67572;SHT31;54397;47.506;19.158;2023-05-07T00:41:51;16.81;80.83
67572;SHT31;54397;47.506;19.158;2023-05-07T00:45:15;16.67;81.30
67572;SHT31;54397;47.506;19.158;2023-05-07T00:48:38;16.71;80.81
67572;SHT31;54397;47.506;19.158;2023-05-07T00:52:09;16.67;80.72
67572;SHT31;54397;47.506;19.158;2023-05-07T00:55:33;16.70;80.53
67572;SHT31;54397;47.506;19.158;2023-05-07T00:58:54;16.73;80.34
67572;SHT31;54397;47.506;19.158;2023-05-07T01:02:19;16.49;81.15
67572;SHT31;54397;47.506;19.158;2023-05-07T01:05:41;16.38;81.50
67572;SHT31;54397;47.506;19.158;2023-05-07T01:09:04;16.45;81.21
67572;SHT31;54397;47.506;19.158;2023-05-07T01:12:26;16.34;81.55
67572;SHT31;54397;47.506;19.158;2023-05-07T01:15:51;16.34;81.68
67572;SHT31;54397;47.506;19.158;2023-05-07T01:19:14;16.34;81.42
67572;SHT31;54397;47.506;19.158;2023-05-07T01:22:38;16.42;81.78
67572;SHT31;54397;47.506;19.158;2023-05-07T01:26:00;16.43;81.49
67572;SHT31;54397;47.506;19.158;2023-05-07T01:29:23;16.57;80.75
67572;SHT31;54397;47.506;19.158;2023-05-07T01:36:20;16.56;80.74
67572;SHT31;54397;47.506;19.158;2023-05-07T01:39:42;16.32;81.79
67572;SHT31;54397;47.506;19.158;2023-05-07T01:43:05;16.39;81.68
67572;SHT31;54397;47.506;19.158;2023-05-07T01:46:29;16.49;81.00
67572;SHT31;54397;47.506;19.158;2023-05-07T01:49:52;16.38;81.26
67572;SHT31;54397;47.506;19.158;2023-05-07T01:53:14;16.50;80.88
67572;SHT31;54397;47.506;19.158;2023-05-07T01:56:36;16.36;81.17
67572;SHT31;54397;47.506;19.158;2023-05-07T02:00:00;16.23;81.78
67572;SHT31;54397;47.506;19.158;2023-05-07T02:03:21;16.16;82.05
67572;SHT31;54397;47.506;19.158;2023-05-07T02:06:46;16.06;82.37
67572;SHT31;54397;47.506;19.158;2023-05-07T02:10:08;16.02;82.74
67572;SHT31;54397;47.506;19.158;2023-05-07T02:13:33;15.98;82.91
67572;SHT31;54397;47.506;19.158;2023-05-07T02:16:55;16.33;80.79
67572;SHT31;54397;47.506;19.158;2023-05-07T02:20:18;16.12;81.19
67572;SHT31;54397;47.506;19.158;2023-05-07T02:23:40;15.91;81.98
67572;SHT31;54397;47.506;19.158;2023-05-07T02:27:04;15.91;81.81
67572;SHT31;54397;47.506;19.158;2023-05-07T02:30:25;15.87;82.04
67572;SHT31;54397;47.506;19.158;2023-05-07T02:33:47;15.94;81.00
67572;SHT31;54397;47.506;19.158;2023-05-07T02:37:09;15.73;81.96
67572;SHT31;54397;47.506;19.158;2023-05-07T02:40:31;15.64;82.33
67572;SHT31;54397;47.506;19.158;2023-05-07T02:43:54;15.53;82.81
67572;SHT31;54397;47.506;19.158;2023-05-07T02:47:21;15.40;83.18
67572;SHT31;54397;47.506;19.158;2023-05-07T02:50:46;15.33;83.11
67572;SHT31;54397;47.506;19.158;2023-05-07T02:54:09;15.35;83.10
67572;SHT31;54397;47.506;19.158;2023-05-07T02:57:33;15.30;82.98
67572;SHT31;54397;47.506;19.158;2023-05-07T03:00:58;15.54;81.66
67572;SHT31;54397;47.506;19.158;2023-05-07T03:04:25;15.30;82.10
67572;SHT31;54397;47.506;19.158;2023-05-07T03:07:47;15.20;82.31
67572;SHT31;54397;47.506;19.158;2023-05-07T03:11:11;15.39;81.51
67572;SHT31;54397;47.506;19.158;2023-05-07T03:14:35;15.32;81.40
67572;SHT31;54397;47.506;19.158;2023-05-07T03:17:59;15.13;82.10
67572;SHT31;54397;47.506;19.158;2023-05-07T03:21:21;15.05;82.39
67572;SHT31;54397;47.506;19.158;2023-05-07T03:24:42;15.00;82.89
67572;SHT31;54397;47.506;19.158;2023-05-07T03:28:06;14.84;83.34
67572;SHT31;54397;47.506;19.158;2023-05-07T03:31:28;15.15;81.93
67572;SHT31;54397;47.506;19.158;2023-05-07T03:34:50;15.12;81.99
67572;SHT31;54397;47.506;19.158;2023-05-07T03:38:12;14.98;82.45
67572;SHT31;54397;47.506;19.158;2023-05-07T03:41:33;14.98;82.92
67572;SHT31;54397;47.506;19.158;2023-05-07T03:44:57;15.20;82.22
67572;SHT31;54397;47.506;19.158;2023-05-07T03:48:19;15.35;81.83
67572;SHT31;54397;47.506;19.158;2023-05-07T03:51:41;15.33;82.38
67572;SHT31;54397;47.506;19.158;2023-05-07T03:55:05;15.42;82.07
67572;SHT31;54397;47.506;19.158;2023-05-07T03:58:27;15.44;81.80
67572;SHT31;54397;47.506;19.158;2023-05-07T04:01:51;15.33;82.01
67572;SHT31;54397;47.506;19.158;2023-05-07T04:05:14;15.27;81.73
67572;SHT31;54397;47.506;19.158;2023-05-07T04:08:41;15.18;82.20
67572;SHT31;54397;47.506;19.158;2023-05-07T04:12:03;15.19;82.42
67572;SHT31;54397;47.506;19.158;2023-05-07T04:15:25;15.20;82.45
67572;SHT31;54397;47.506;19.158;2023-05-07T04:18:46;15.09;82.90
67572;SHT31;54397;47.506;19.158;2023-05-07T04:22:09;15.06;83.00
67572;SHT31;54397;47.506;19.158;2023-05-07T04:25:31;15.22;82.55
67572;SHT31;54397;47.506;19.158;2023-05-07T04:28:53;15.05;82.94
67572;SHT31;54397;47.506;19.158;2023-05-07T04:32:14;15.25;82.37
67572;SHT31;54397;47.506;19.158;2023-05-07T04:35:41;15.22;82.62
67572;SHT31;54397;47.506;19.158;2023-05-07T04:39:02;15.22;82.74
67572;SHT31;54397;47.506;19.158;2023-05-07T04:42:24;15.26;82.81
67572;SHT31;54397;47.506;19.158;2023-05-07T04:45:46;15.30;82.87
67572;SHT31;54397;47.506;19.158;2023-05-07T04:49:10;15.44;82.64
67572;SHT31;54397;47.506;19.158;2023-05-07T04:52:32;15.46;82.81
67572;SHT31;54397;47.506;19.158;2023-05-07T04:55:57;15.53;82.81
67572;SHT31;54397;47.506;19.158;2023-05-07T04:59:19;15.68;82.52
67572;SHT31;54397;47.506;19.158;2023-05-07T05:02:41;15.77;82.39
67572;SHT31;54397;47.506;19.158;2023-05-07T05:06:07;16.01;81.45
67572;SHT31;54397;47.506;19.158;2023-05-07T05:09:32;16.18;81.18
67572;SHT31;54397;47.506;19.158;2023-05-07T05:12:55;16.23;81.59
67572;SHT31;54397;47.506;19.158;2023-05-07T05:16:20;16.40;81.50
67572;SHT31;54397;47.506;19.158;2023-05-07T05:19:43;16.79;80.78
67572;SHT31;54397;47.506;19.158;2023-05-07T05:23:05;16.85;81.53
67572;SHT31;54397;47.506;19.158;2023-05-07T05:26:30;17.10;81.50
67572;SHT31;54397;47.506;19.158;2023-05-07T05:29:51;17.34;81.12
67572;SHT31;54397;47.506;19.158;2023-05-07T05:33:16;17.77;80.44
67572;SHT31;54397;47.506;19.158;2023-05-07T05:36:42;18.00;79.69
67572;SHT31;54397;47.506;19.158;2023-05-07T05:40:05;18.32;78.82
67572;SHT31;54397;47.506;19.158;2023-05-07T05:43:27;18.76;77.47
67572;SHT31;54397;47.506;19.158;2023-05-07T05:46:51;18.97;76.00
67572;SHT31;54397;47.506;19.158;2023-05-07T05:50:13;18.89;75.85
67572;SHT31;54397;47.506;19.158;2023-05-07T05:53:35;19.04;75.54
67572;SHT31;54397;47.506;19.158;2023-05-07T05:56:59;19.27;74.71
67572;SHT31;54397;47.506;19.158;2023-05-07T06:00:21;19.21;73.52
67572;SHT31;54397;47.506;19.158;2023-05-07T06:03:45;19.41;72.90
67572;SHT31;54397;47.506;19.158;2023-05-07T06:07:09;19.69;72.81
67572;SHT31;54397;47.506;19.158;2023-05-07T06:10:30;19.75;72.83
67572;SHT31;54397;47.506;19.158;2023-05-07T06:13:52;20.00;72.19
67572;SHT31;54397;47.506;19.158;2023-05-07T06:17:14;20.02;71.50
67572;SHT31;54397;47.506;19.158;2023-05-07T06:20:38;20.20;70.34
67572;SHT31;54397;47.506;19.158;2023-05-07T06:24:02;20.27;70.13
67572;SHT31;54397;47.506;19.158;2023-05-07T06:27:26;20.34;69.27
67572;SHT31;54397;47.506;19.158;2023-05-07T06:30:51;19.81;69.94
67572;SHT31;54397;47.506;19.158;2023-05-07T06:34:13;19.79;69.92
67572;SHT31;54397;47.506;19.158;2023-05-07T06:37:41;19.89;69.52
67572;SHT31;54397;47.506;19.158;2023-05-07T06:41:06;19.81;69.95
67572;SHT31;54397;47.506;19.158;2023-05-07T06:44:30;19.78;69.19
67572;SHT31;54397;47.506;19.158;2023-05-07T06:47:52;20.00;67.99
67572;SHT31;54397;47.506;19.158;2023-05-07T06:51:14;20.39;67.81
67572;SHT31;54397;47.506;19.158;2023-05-07T06:54:37;20.94;66.67
67572;SHT31;54397;47.506;19.158;2023-05-07T06:57:59;21.10;64.87
67572;SHT31;54397;47.506;19.158;2023-05-07T07:01:22;20.95;63.87
67572;SHT31;54397;47.506;19.158;2023-05-07T07:04:44;20.96;63.85
67572;SHT31;54397;47.506;19.158;2023-05-07T07:08:06;21.10;64.17
67572;SHT31;54397;47.506;19.158;2023-05-07T07:11:28;20.89;62.99
67572;SHT31;54397;47.506;19.158;2023-05-07T07:14:52;20.99;63.25
67572;SHT31;54397;47.506;19.158;2023-05-07T07:18:17;20.88;63.54
67572;SHT31;54397;47.506;19.158;2023-05-07T07:21:41;21.03;62.75
67572;SHT31;54397;47.506;19.158;2023-05-07T07:25:06;20.92;63.46
67572;SHT31;54397;47.506;19.158;2023-05-07T07:28:28;21.37;62.60
67572;SHT31;54397;47.506;19.158;2023-05-07T07:31:49;21.84;60.71
67572;SHT31;54397;47.506;19.158;2023-05-07T07:35:11;21.95;60.64
67572;SHT31;54397;47.506;19.158;2023-05-07T07:38:38;22.01;60.01
67572;SHT31;54397;47.506;19.158;2023-05-07T07:42:02;21.87;61.41
67572;SHT31;54397;47.506;19.158;2023-05-07T07:45:26;21.94;59.94
67572;SHT31;54397;47.506;19.158;2023-05-07T07:48:50;22.12;59.31
67572;SHT31;54397;47.506;19.158;2023-05-07T07:52:15;22.19;58.70
67572;SHT31;54397;47.506;19.158;2023-05-07T07:55:42;22.49;58.82
67572;SHT31;54397;47.506;19.158;2023-05-07T07:59:06;22.77;57.68
67572;SHT31;54397;47.506;19.158;2023-05-07T08:02:30;22.32;57.99
67572;SHT31;54397;47.506;19.158;2023-05-07T08:05:52;22.48;58.89
67572;SHT31;54397;47.506;19.158;2023-05-07T08:09:14;22.76;58.34
67572;SHT31;54397;47.506;19.158;2023-05-07T08:12:38;22.31;58.64
67572;SHT31;54397;47.506;19.158;2023-05-07T08:15:59;22.11;59.83
67572;SHT31;54397;47.506;19.158;2023-05-07T08:19:23;22.08;60.36
67572;SHT31;54397;47.506;19.158;2023-05-07T08:22:45;21.64;61.43
67572;SHT31;54397;47.506;19.158;2023-05-07T08:26:08;21.53;61.71
67572;SHT31;54397;47.506;19.158;2023-05-07T08:29:30;21.65;60.93
67572;SHT31;54397;47.506;19.158;2023-05-07T08:32:51;21.70;60.87
67572;SHT31;54397;47.506;19.158;2023-05-07T08:36:13;21.78;61.05
67572;SHT31;54397;47.506;19.158;2023-05-07T08:39:35;21.95;59.80
67572;SHT31;54397;47.506;19.158;2023-05-07T08:42:57;21.92;59.86
67572;SHT31;54397;47.506;19.158;2023-05-07T08:46:21;21.83;58.52
67572;SHT31;54397;47.506;19.158;2023-05-07T08:49:43;21.61;57.65
67572;SHT31;54397;47.506;19.158;2023-05-07T08:53:08;21.42;58.89
67572;SHT31;54397;47.506;19.158;2023-05-07T08:56:31;21.64;59.46
67572;SHT31;54397;47.506;19.158;2023-05-07T08:59:53;21.97;59.92
67572;SHT31;54397;47.506;19.158;2023-05-07T09:03:17;22.26;58.94
67572;SHT31;54397;47.506;19.158;2023-05-07T09:06:39;22.13;57.58
67572;SHT31;54397;47.506;19.158;2023-05-07T09:10:04;21.33;58.12
67572;SHT31;54397;47.506;19.158;2023-05-07T09:13:29;21.56;58.80
67572;SHT31;54397;47.506;19.158;2023-05-07T09:16:54;21.83;56.82
67572;SHT31;54397;47.506;19.158;2023-05-07T09:20:16;22.00;57.81
67572;SHT31;54397;47.506;19.158;2023-05-07T09:23:38;21.95;56.81
67572;SHT31;54397;47.506;19.158;2023-05-07T09:27:02;22.13;56.79
67572;SHT31;54397;47.506;19.158;2023-05-07T09:30:30;22.31;57.46
67572;SHT31;54397;47.506;19.158;2023-05-07T09:33:54;22.76;55.72
67572;SHT31;54397;47.506;19.158;2023-05-07T09:37:17;23.27;55.66
67572;SHT31;54397;47.506;19.158;2023-05-07T09:40:41;23.86;52.95
67572;SHT31;54397;47.506;19.158;2023-05-07T09:44:05;23.94;52.20
67572;SHT31;54397;47.506;19.158;2023-05-07T09:47:34;24.28;51.66
67572;SHT31;54397;47.506;19.158;2023-05-07T09:51:06;23.84;52.03
67572;SHT31;54397;47.506;19.158;2023-05-07T09:54:29;23.63;52.37
67572;SHT31;54397;47.506;19.158;2023-05-07T09:57:53;23.15;52.53
67572;SHT31;54397;47.506;19.158;2023-05-07T10:01:17;23.17;52.19
67572;SHT31;54397;47.506;19.158;2023-05-07T10:04:40;22.96;52.74
67572;SHT31;54397;47.506;19.158;2023-05-07T10:08:03;22.84;52.45
67572;SHT31;54397;47.506;19.158;2023-05-07T10:11:25;22.84;51.28
67572;SHT31;54397;47.506;19.158;2023-05-07T10:14:52;22.67;52.42
67572;SHT31;54397;47.506;19.158;2023-05-07T10:18:18;22.76;50.00
67572;SHT31;54397;47.506;19.158;2023-05-07T10:21:50;22.71;51.48
67572;SHT31;54397;47.506;19.158;2023-05-07T10:25:20;22.60;50.31
67572;SHT31;54397;47.506;19.158;2023-05-07T10:28:47;22.42;49.95
67572;SHT31;54397;47.506;19.158;2023-05-07T10:36:02;22.06;51.01
67572;SHT31;54397;47.506;19.158;2023-05-07T10:39:28;22.01;52.15
67572;SHT31;54397;47.506;19.158;2023-05-07T10:42:58;22.06;51.74
67572;SHT31;54397;47.506;19.158;2023-05-07T10:46:22;22.21;52.92
67572;SHT31;54397;47.506;19.158;2023-05-07T10:56:42;22.66;53.95
67572;SHT31;54397;47.506;19.158;2023-05-07T11:04:14;22.55;54.94
67572;SHT31;54397;47.506;19.158;2023-05-07T11:07:36;22.38;55.12
67572;SHT31;54397;47.506;19.158;2023-05-07T11:11:00;22.50;54.94
67572;SHT31;54397;47.506;19.158;2023-05-07T11:14:42;22.29;54.78
67572;SHT31;54397;47.506;19.158;2023-05-07T11:18:04;22.48;54.62
67572;SHT31;54397;47.506;19.158;2023-05-07T11:21:40;22.73;55.32
67572;SHT31;54397;47.506;19.158;2023-05-07T11:25:03;23.21;54.34
67572;SHT31;54397;47.506;19.158;2023-05-07T11:28:28;23.19;54.20
67572;SHT31;54397;47.506;19.158;2023-05-07T11:31:53;22.87;56.32
67572;SHT31;54397;47.506;19.158;2023-05-07T11:35:16;22.90;56.62
67572;SHT31;54397;47.506;19.158;2023-05-07T11:38:38;22.88;55.09
67572;SHT31;54397;47.506;19.158;2023-05-07T11:42:00;23.27;54.78
67572;SHT31;54397;47.506;19.158;2023-05-07T11:45:24;23.48;53.95
67572;SHT31;54397;47.506;19.158;2023-05-07T11:48:47;23.01;54.04
67572;SHT31;54397;47.506;19.158;2023-05-07T11:52:09;23.41;53.84
67572;SHT31;54397;47.506;19.158;2023-05-07T11:55:30;23.48;53.31
67572;SHT31;54397;47.506;19.158;2023-05-07T11:58:52;23.79;52.72
67572;SHT31;54397;47.506;19.158;2023-05-07T12:02:17;23.96;51.90
67572;SHT31;54397;47.506;19.158;2023-05-07T12:05:39;24.00;52.10
67572;SHT31;54397;47.506;19.158;2023-05-07T12:09:03;24.07;51.39
67572;SHT31;54397;47.506;19.158;2023-05-07T12:12:26;24.01;51.24
67572;SHT31;54397;47.506;19.158;2023-05-07T12:15:56;24.32;51.07
67572;SHT31;54397;47.506;19.158;2023-05-07T12:19:18;24.41;49.81
67572;SHT31;54397;47.506;19.158;2023-05-07T12:22:43;24.64;47.98
67572;SHT31;54397;47.506;19.158;2023-05-07T12:26:08;23.93;48.60
67572;SHT31;54397;47.506;19.158;2023-05-07T12:29:32;23.63;49.75
67572;SHT31;54397;47.506;19.158;2023-05-07T12:32:54;23.93;48.50
67572;SHT31;54397;47.506;19.158;2023-05-07T12:36:16;24.07;49.00
67572;SHT31;54397;47.506;19.158;2023-05-07T12:39:43;24.40;48.78
67572;SHT31;54397;47.506;19.158;2023-05-07T12:43:08;24.17;47.86
67572;SHT31;54397;47.506;19.158;2023-05-07T12:46:39;24.44;48.20
67572;SHT31;54397;47.506;19.158;2023-05-07T12:50:01;24.51;48.06
67572;SHT31;54397;47.506;19.158;2023-05-07T12:53:26;24.79;47.44
67572;SHT31;54397;47.506;19.158;2023-05-07T12:56:47;24.68;46.27
67572;SHT31;54397;47.506;19.158;2023-05-07T13:00:15;24.32;46.28
67572;SHT31;54397;47.506;19.158;2023-05-07T13:03:48;23.83;48.05
67572;SHT31;54397;47.506;19.158;2023-05-07T13:07:11;23.70;49.44
67572;SHT31;54397;47.506;19.158;2023-05-07T13:10:33;24.03;50.09
67572;SHT31;54397;47.506;19.158;2023-05-07T13:13:58;24.24;49.12
67572;SHT31;54397;47.506;19.158;2023-05-07T13:17:21;24.55;48.10
67572;SHT31;54397;47.506;19.158;2023-05-07T13:20:43;24.28;49.10
67572;SHT31;54397;47.506;19.158;2023-05-07T13:24:07;24.34;48.22
67572;SHT31;54397;47.506;19.158;2023-05-07T13:27:34;24.71;47.32
67572;SHT31;54397;47.506;19.158;2023-05-07T13:30:58;24.80;45.78
67572;SHT31;54397;47.506;19.158;2023-05-07T13:34:23;25.07;46.51
67572;SHT31;54397;47.506;19.158;2023-05-07T13:37:44;24.76;46.00
67572;SHT31;54397;47.506;19.158;2023-05-07T13:41:06;24.54;45.80
67572;SHT31;54397;47.506;19.158;2023-05-07T13:44:27;24.69;46.56
67572;SHT31;54397;47.506;19.158;2023-05-07T13:47:49;24.40;46.44
67572;SHT31;54397;47.506;19.158;2023-05-07T13:51:11;24.37;47.77
67572;SHT31;54397;47.506;19.158;2023-05-07T13:54:39;24.24;47.60
67572;SHT31;54397;47.506;19.158;2023-05-07T13:58:05;24.27;46.86
67572;SHT31;54397;47.506;19.158;2023-05-07T14:01:28;24.04;47.24
67572;SHT31;54397;47.506;19.158;2023-05-07T14:04:49;24.21;47.39
67572;SHT31;54397;47.506;19.158;2023-05-07T14:08:14;24.09;46.77
67572;SHT31;54397;47.506;19.158;2023-05-07T14:11:35;24.14;46.51
67572;SHT31;54397;47.506;19.158;2023-05-07T14:15:01;23.97;47.15
67572;SHT31;54397;47.506;19.158;2023-05-07T14:18:23;24.27;46.93
67572;SHT31;54397;47.506;19.158;2023-05-07T14:21:48;24.38;46.49
67572;SHT31;54397;47.506;19.158;2023-05-07T14:25:09;24.42;46.14
67572;SHT31;54397;47.506;19.158;2023-05-07T14:28:33;24.22;45.76
67572;SHT31;54397;47.506;19.158;2023-05-07T14:31:55;24.04;46.42
67572;SHT31;54397;47.506;19.158;2023-05-07T14:35:17;24.16;46.65
67572;SHT31;54397;47.506;19.158;2023-05-07T14:38:43;24.09;46.32
67572;SHT31;54397;47.506;19.158;2023-05-07T14:42:05;24.35;46.73
67572;SHT31;54397;47.506;19.158;2023-05-07T14:45:29;24.22;46.51
67572;SHT31;54397;47.506;19.158;2023-05-07T14:48:50;24.32;46.52
67572;SHT31;54397;47.506;19.158;2023-05-07T14:52:12;24.21;45.84
67572;SHT31;54397;47.506;19.158;2023-05-07T14:55:36;23.97;47.00
67572;SHT31;54397;47.506;19.158;2023-05-07T14:58:58;24.00;47.36
67572;SHT31;54397;47.506;19.158;2023-05-07T15:02:21;23.77;47.52
67572;SHT31;54397;47.506;19.158;2023-05-07T15:05:43;23.82;47.50
67572;SHT31;54397;47.506;19.158;2023-05-07T15:09:05;23.73;48.70
67572;SHT31;54397;47.506;19.158;2023-05-07T15:12:26;23.49;49.35
67572;SHT31;54397;47.506;19.158;2023-05-07T15:15:48;23.29;50.04
67572;SHT31;54397;47.506;19.158;2023-05-07T15:19:11;23.10;50.63
67572;SHT31;54397;47.506;19.158;2023-05-07T15:22:32;22.98;50.86
67572;SHT31;54397;47.506;19.158;2023-05-07T15:25:57;22.94;50.81
67572;SHT31;54397;47.506;19.158;2023-05-07T15:29:21;23.08;51.00
67572;SHT31;54397;47.506;19.158;2023-05-07T15:32:43;23.07;50.53
67572;SHT31;54397;47.506;19.158;2023-05-07T15:36:07;23.17;50.74
67572;SHT31;54397;47.506;19.158;2023-05-07T15:39:30;22.91;51.29
67572;SHT31;54397;47.506;19.158;2023-05-07T15:42:55;22.97;51.69
67572;SHT31;54397;47.506;19.158;2023-05-07T15:46:18;22.81;51.24
67572;SHT31;54397;47.506;19.158;2023-05-07T15:49:43;22.74;51.38
67572;SHT31;54397;47.506;19.158;2023-05-07T15:53:04;22.50;51.19
67572;SHT31;54397;47.506;19.158;2023-05-07T15:56:26;22.46;51.39
67572;SHT31;54397;47.506;19.158;2023-05-07T15:59:51;22.48;51.32
67572;SHT31;54397;47.506;19.158;2023-05-07T16:03:15;22.35;50.50
67572;SHT31;54397;47.506;19.158;2023-05-07T16:06:39;22.26;51.04
67572;SHT31;54397;47.506;19.158;2023-05-07T16:10:02;22.29;50.40
67572;SHT31;54397;47.506;19.158;2023-05-07T16:13:24;22.31;50.15
67572;SHT31;54397;47.506;19.158;2023-05-07T16:16:49;22.38;49.71
67572;SHT31;54397;47.506;19.158;2023-05-07T16:20:11;22.16;49.94
67572;SHT31;54397;47.506;19.158;2023-05-07T16:23:33;22.13;50.03
67572;SHT31;54397;47.506;19.158;2023-05-07T16:26:55;22.13;49.80
67572;SHT31;54397;47.506;19.158;2023-05-07T16:30:21;22.29;49.81
67572;SHT31;54397;47.506;19.158;2023-05-07T16:33:45;22.05;49.24
67572;SHT31;54397;47.506;19.158;2023-05-07T16:37:07;21.98;50.26
67572;SHT31;54397;47.506;19.158;2023-05-07T16:40:29;21.73;49.64
67572;SHT31;54397;47.506;19.158;2023-05-07T16:43:50;21.87;50.06
67572;SHT31;54397;47.506;19.158;2023-05-07T16:47:12;21.85;49.99
67572;SHT31;54397;47.506;19.158;2023-05-07T16:50:36;21.70;50.43
67572;SHT31;54397;47.506;19.158;2023-05-07T16:53:58;21.77;49.31
67572;SHT31;54397;47.506;19.158;2023-05-07T16:57:20;21.60;49.07
67572;SHT31;54397;47.506;19.158;2023-05-07T17:00:47;21.63;49.75
67572;SHT31;54397;47.506;19.158;2023-05-07T17:04:11;21.33;49.82
67572;SHT31;54397;47.506;19.158;2023-05-07T17:07:35;21.20;50.34
67572;SHT31;54397;47.506;19.158;2023-05-07T17:10:57;21.06;50.85
67572;SHT31;54397;47.506;19.158;2023-05-07T17:14:18;21.16;51.18
67572;SHT31;54397;47.506;19.158;2023-05-07T17:17:40;21.25;50.85
67572;SHT31;54397;47.506;19.158;2023-05-07T17:21:02;21.10;50.96
67572;SHT31;54397;47.506;19.158;2023-05-07T17:24:24;21.23;51.06
67572;SHT31;54397;47.506;19.158;2023-05-07T17:27:45;21.08;51.15
67572;SHT31;54397;47.506;19.158;2023-05-07T17:31:09;21.03;51.42
67572;SHT31;54397;47.506;19.158;2023-05-07T17:34:31;21.00;51.59
67572;SHT31;54397;47.506;19.158;2023-05-07T17:37:55;20.58;51.69
67572;SHT31;54397;47.506;19.158;2023-05-07T17:41:17;20.61;51.93
67572;SHT31;54397;47.506;19.158;2023-05-07T17:44:41;20.40;52.01
67572;SHT31;54397;47.506;19.158;2023-05-07T17:48:03;20.14;52.61
67572;SHT31;54397;47.506;19.158;2023-05-07T17:51:24;19.95;52.58
67572;SHT31;54397;47.506;19.158;2023-05-07T17:55:03;20.06;52.73
67572;SHT31;54397;47.506;19.158;2023-05-07T17:58:24;20.19;52.82
67572;SHT31;54397;47.506;19.158;2023-05-07T18:01:50;20.19;52.13
67572;SHT31;54397;47.506;19.158;2023-05-07T18:05:14;20.33;51.97
67572;SHT31;54397;47.506;19.158;2023-05-07T18:08:36;20.17;52.63
67572;SHT31;54397;47.506;19.158;2023-05-07T18:12:00;20.16;52.68
67572;SHT31;54397;47.506;19.158;2023-05-07T18:15:25;19.58;53.48
67572;SHT31;54397;47.506;19.158;2023-05-07T18:18:46;19.30;54.15
67572;SHT31;54397;47.506;19.158;2023-05-07T18:22:08;19.35;54.02
67572;SHT31;54397;47.506;19.158;2023-05-07T18:25:30;19.39;54.71
67572;SHT31;54397;47.506;19.158;2023-05-07T18:28:51;19.23;54.85
67572;SHT31;54397;47.506;19.158;2023-05-07T18:32:15;19.23;54.62
67572;SHT31;54397;47.506;19.158;2023-05-07T18:35:40;19.68;54.06
67572;SHT31;54397;47.506;19.158;2023-05-07T18:39:04;19.71;54.19
67572;SHT31;54397;47.506;19.158;2023-05-07T18:42:25;19.85;54.12
67572;SHT31;54397;47.506;19.158;2023-05-07T18:45:49;19.44;57.00
67572;SHT31;54397;47.506;19.158;2023-05-07T18:49:11;19.14;61.36
67572;SHT31;54397;47.506;19.158;2023-05-07T18:52:32;18.96;63.86
67572;SHT31;54397;47.506;19.158;2023-05-07T18:55:54;18.85;64.48
67572;SHT31;54397;47.506;19.158;2023-05-07T18:59:20;18.55;65.78
67572;SHT31;54397;47.506;19.158;2023-05-07T19:02:42;18.38;66.46
67572;SHT31;54397;47.506;19.158;2023-05-07T19:06:06;18.03;67.83
67572;SHT31;54397;47.506;19.158;2023-05-07T19:09:28;17.86;68.65
67572;SHT31;54397;47.506;19.158;2023-05-07T19:12:52;17.80;68.95
67572;SHT31;54397;47.506;19.158;2023-05-07T19:16:18;17.66;69.06
67572;SHT31;54397;47.506;19.158;2023-05-07T19:19:42;17.24;69.08
67572;SHT31;54397;47.506;19.158;2023-05-07T19:23:09;17.14;68.45
67572;SHT31;54397;47.506;19.158;2023-05-07T19:26:32;17.01;68.17
67572;SHT31;54397;47.506;19.158;2023-05-07T19:29:54;17.04;67.80
67572;SHT31;54397;47.506;19.158;2023-05-07T19:33:18;16.91;67.97
67572;SHT31;54397;47.506;19.158;2023-05-07T19:36:40;16.84;67.91
67572;SHT31;54397;47.506;19.158;2023-05-07T19:40:02;16.91;66.97
67572;SHT31;54397;47.506;19.158;2023-05-07T19:43:25;16.91;66.48
67572;SHT31;54397;47.506;19.158;2023-05-07T19:46:47;16.50;66.43
67572;SHT31;54397;47.506;19.158;2023-05-07T19:50:09;16.39;65.93
67572;SHT31;54397;47.506;19.158;2023-05-07T19:53:33;16.38;65.11
67572;SHT31;54397;47.506;19.158;2023-05-07T19:57:03;16.25;64.30
67572;SHT31;54397;47.506;19.158;2023-05-07T20:00:25;15.94;64.19
67572;SHT31;54397;47.506;19.158;2023-05-07T20:03:50;15.83;64.03
67572;SHT31;54397;47.506;19.158;2023-05-07T20:07:12;15.66;64.31
67572;SHT31;54397;47.506;19.158;2023-05-07T20:10:36;15.75;63.60
67572;SHT31;54397;47.506;19.158;2023-05-07T20:14:01;15.61;63.00
67572;SHT31;54397;47.506;19.158;2023-05-07T20:17:27;15.46;63.29
67572;SHT31;54397;47.506;19.158;2023-05-07T20:20:53;15.23;63.82
67572;SHT31;54397;47.506;19.158;2023-05-07T20:24:17;15.19;63.68
67572;SHT31;54397;47.506;19.158;2023-05-07T20:27:40;15.39;62.96
67572;SHT31;54397;47.506;19.158;2023-05-07T20:31:02;15.47;62.75
67572;SHT31;54397;47.506;19.158;2023-05-07T20:34:24;15.06;64.08
67572;SHT31;54397;47.506;19.158;2023-05-07T20:37:45;15.20;64.04
67572;SHT31;54397;47.506;19.158;2023-05-07T20:41:08;15.13;64.32
67572;SHT31;54397;47.506;19.158;2023-05-07T20:44:33;15.23;64.18
67572;SHT31;54397;47.506;19.158;2023-05-07T20:47:57;15.03;64.55
67572;SHT31;54397;47.506;19.158;2023-05-07T20:51:18;14.72;64.70
67572;SHT31;54397;47.506;19.158;2023-05-07T20:54:42;14.88;64.06
67572;SHT31;54397;47.506;19.158;2023-05-07T20:58:09;15.00;63.92
67572;SHT31;54397;47.506;19.158;2023-05-07T21:01:30;14.98;63.69
67572;SHT31;54397;47.506;19.158;2023-05-07T21:04:56;15.06;63.95
67572;SHT31;54397;47.506;19.158;2023-05-07T21:08:18;14.98;63.46
67572;SHT31;54397;47.506;19.158;2023-05-07T21:11:40;15.02;63.70
67572;SHT31;54397;47.506;19.158;2023-05-07T21:15:02;15.09;63.41
67572;SHT31;54397;47.506;19.158;2023-05-07T21:18:26;15.18;63.23
67572;SHT31;54397;47.506;19.158;2023-05-07T21:21:50;15.22;64.08